Flight Track Log - Related Links

Times and Time Zones

All times are in EDT time to prevent confusion due to time zone crossing. See the TRS420 flight status page for this flight to view local times or setup timezone preferences in your user account.

Time Position Orientation Groundspeed Altitude Reporting Facility
EDT Latitude Longitude Course Direction KTS MPH feet Rate Location/Type
Sat 06:16:33 PM 27.9667 -82.5500 180° South 148 170 900  Level Tampa TRACON
Sat 06:17:15 PM 27.9333 -82.5500 180° South 179 206 2,100 1,824 Climbing Tampa TRACON
Sat 06:18:15 PM 27.8833 -82.5833 211° Southwest 265 305 4,000 2,550 Climbing Tampa TRACON
Sat 06:19:15 PM 27.8667 -82.6500 254° West 262 302 7,200 2,000 Climbing Tampa TRACON
Sat 06:20:15 PM 27.8833 -82.7333 283° West 251 289 8,000 1,149 Climbing Tampa TRACON
Sat 06:22:23 PM 28.0350 -82.7514 354° North 269 310 10,800 1,436 Climbing Jacksonville Center
Sat 06:23:23 PM 28.1269 -82.7608 355° North 304 350 12,500 2,000 Climbing Jacksonville Center
Sat 06:24:23 PM 28.2333 -82.7678 357° North 343 395 14,800 2,100 Climbing Jacksonville Center
Sat 06:25:23 PM 28.3336 -82.7747 357° North 363 418 16,700 2,100 Climbing Jacksonville Center
Sat 06:26:23 PM 28.4503 -82.7933 352° North 375 432 19,000 2,000 Climbing Jacksonville Center
Sat 06:27:23 PM 28.5653 -82.8100 353° North 388 447 20,700 1,700 Climbing Jacksonville Center
Sat 06:28:23 PM 28.6800 -82.8381 348° North 405 466 22,400 1,650 Climbing Jacksonville Center
Sat 06:29:23 PM 28.7886 -82.8594 350° North 426 490 24,000 1,450 Climbing Jacksonville Center
Sat 06:30:23 PM 28.9075 -82.8903 347° North 432 497 25,300 1,350 Climbing Jacksonville Center
Sat 06:31:23 PM 29.0369 -82.9186 349° North 445 512 26,700 1,450 Climbing Jacksonville Center
Sat 06:32:23 PM 29.1622 -82.9472 349° North 457 526 28,200 1,800 Climbing Jacksonville Center
Sat 06:33:23 PM 29.2894 -82.9783 348° North 457 526 30,300 2,050 Climbing Jacksonville Center
Sat 06:34:23 PM 29.4106 -83.0069 348° North 457 526 32,300 1,650 Climbing Jacksonville Center
Sat 06:35:23 PM 29.5336 -83.0406 347° North 446 513 33,600 850 Climbing Jacksonville Center
Sat 06:36:23 PM 29.6317 -83.1075 329° Northwest 424 488 34,000 200 Climbing Jacksonville Center
Sat 06:37:23 PM 29.7317 -83.1819 327° Northwest 417 480 34,000  Level Jacksonville Center
Sat 06:38:23 PM 29.8381 -83.2614 327° Northwest 422 486 34,000  Level Jacksonville Center
Sat 06:39:23 PM 29.9358 -83.3336 327° Northwest 422 486 34,000  Level Jacksonville Center
Sat 06:40:23 PM 30.0336 -83.4061 327° Northwest 422 486 34,000  Level Jacksonville Center
Sat 06:41:23 PM 30.1336 -83.4811 327° Northwest 422 486 34,000  Level Jacksonville Center
Sat 06:42:23 PM 30.2294 -83.5514 328° Northwest 422 486 34,000  Level Jacksonville Center
Sat 06:43:23 PM 30.3269 -83.6267 326° Northwest 417 480 34,000  Level Jacksonville Center
Sat 06:44:23 PM 30.4228 -83.6972 328° Northwest 417 480 34,000  Level Jacksonville Center
Sat 06:45:23 PM 30.5183 -83.7703 327° Northwest 417 480 34,000  Level Jacksonville Center
Sat 06:46:23 PM 30.6117 -83.8411 327° Northwest 417 480 34,000 -167 Level Jacksonville Center
Sat 06:48:23 PM 30.8025 -83.9858 327° Northwest 417 480 33,500 -367 Descending Jacksonville Center
Sat 06:49:23 PM 30.9000 -84.0619 326° Northwest 417 480 32,900 -700 Descending Jacksonville Center
Sat 06:50:23 PM 30.9975 -84.1358 327° Northwest 417 480 32,100 -750 Descending Jacksonville Center
Sat 06:51:23 PM 31.0928 -84.2075 327° Northwest 417 480 31,400 -750 Descending Jacksonville Center
Sat 06:52:23 PM 31.1922 -84.2842 327° Northwest 417 480 30,600 -488 Descending Jacksonville Center
Sat 06:54:15 PM 31.3808 -84.4306 326° Northwest 445 512 30,000 -209 Descending Atlanta Center
Sat 06:55:15 PM 31.4828 -84.5089 327° Northwest 445 512 30,000  Level Atlanta Center
Sat 06:56:15 PM 31.5783 -84.5850 326° Northwest 434 499 30,000  Level Atlanta Center
Sat 06:57:16 PM 31.6825 -84.6636 327° Northwest 434 499 30,000  Level Atlanta Center
Sat 06:58:15 PM 31.8033 -84.7083 343° North 439 505 30,000  Level Atlanta Center
Sat 06:59:16 PM 31.9283 -84.7339 350° North 439 505 30,000  Level Atlanta Center
Sat 07:00:15 PM 32.0575 -84.7642 349° North 459 528 30,000  Level Atlanta Center
Sat 07:01:16 PM 32.1867 -84.7947 349° North 465 535 30,000  Level Atlanta Center
Sat 07:02:15 PM 32.3139 -84.8253 349° North 471 542 30,000  Level Atlanta Center
Sat 07:03:16 PM 32.4453 -84.8511 351° North 471 542 30,000  Level Atlanta Center
Sat 07:04:15 PM 32.5703 -84.8819 348° North 466 536 30,000 -1,210 Level Atlanta Center
Sat 07:05:15 PM 32.6911 -84.9100 349° North 461 531 27,600  Descending Atlanta Center
Sat 07:06:15 PM 32.8183 -84.9461 347° North 461 531 30,000 -3,750 Climbing Atlanta Center
Sat 07:07:15 PM 32.9392 -84.9744 349° North 456 525 20,100 -6,850 Descending Atlanta Center
Sat 07:08:15 PM 33.0536 -85.0006 349° North 429 494 16,300 -2,900 Descending Atlanta Center
Sat 07:09:15 PM 33.1494 -85.0264 347° North 407 468 14,300 -1,100 Descending Atlanta Center
Sat 07:10:15 PM 33.2397 -84.9825 22° Northeast 359 413 14,100 -149 Descending Atlanta Center
Sat 07:11:16 PM 33.3050 -84.8739 54° Northeast 358 412 14,000 -600 Descending Atlanta Center
Sat 07:12:15 PM 33.3786 -84.7800 47° Northeast 380 437 12,900 -1,462 Descending Atlanta Center
Sat 07:13:15 PM 33.4461 -84.6886 48° Northeast 380 437 11,100 -942 Descending Atlanta Center
Sat 07:14:16 PM 33.4883 -84.5817 65° Northeast 357 411 11,000 -298 Descending Atlanta Center
Sat 07:15:16 PM 33.5200 -84.4747 70° East 347 399 10,500 -1,714 Descending Atlanta Center
Sat 07:16:15 PM 33.5328 -84.3753 81° East 318 366 7,600 -2,773 Descending Atlanta Center
Sat 07:17:15 PM 33.5331 -84.2756 90° East 299 344 5,000 -2,901 Descending Atlanta Center
Sat 07:17:46 PM 33.5333 -84.2167 90° East 250 288 3,200 -755 Descending Atlanta TRACON
Sat 07:19:46 PM 33.6167 -84.2333 301° West 165 190 3,100 -67 Descending Atlanta TRACON
Sat 07:20:46 PM 33.6167 -84.2833 270° West 170 196 3,000 -400 Descending Atlanta TRACON
Sat 07:21:46 PM 33.6167 -84.3500 270° West 153 176 2,300 -700 Descending Atlanta TRACON
Sat 07:22:46 PM 33.6167 -84.3833 270° West 121 139 1,600 -700 Descending Atlanta TRACON
Sat 07:24:00 PM 33.6333 -84.4167 313° West  Level FlightAware Approximate
Sat 07:31:00 PM 33.6367 -84.4279 313° West  Level Estimated
Sat 07:32:00 PM 33.6367 -84.4279 132° Southeast  Level Estimated

Login

Don't have an account? Register now (free) for customized features, flight alerts, and more!